sensor_id;sensor_type;location;lat;lon;timestamp;P1;durP1;ratioP1;P2;durP2;ratioP2
75912;SDS011;64592;52.168;21.040;2023-08-31T00:00:33;9.63;;;6.00;;
75912;SDS011;64592;52.168;21.040;2023-08-31T00:05:36;9.60;;;6.57;;
75912;SDS011;64592;52.168;21.040;2023-08-31T00:10:42;8.52;;;5.20;;
75912;SDS011;64592;52.168;21.040;2023-08-31T00:15:43;8.02;;;5.82;;
75912;SDS011;64592;52.168;21.040;2023-08-31T00:20:47;10.63;;;5.95;;
75912;SDS011;64592;52.168;21.040;2023-08-31T00:25:50;8.93;;;5.63;;
75912;SDS011;64592;52.168;21.040;2023-08-31T00:30:53;9.52;;;6.20;;
75912;SDS011;64592;52.168;21.040;2023-08-31T00:35:55;7.47;;;5.05;;
75912;SDS011;64592;52.168;21.040;2023-08-31T00:40:59;8.73;;;6.30;;
75912;SDS011;64592;52.168;21.040;2023-08-31T00:46:02;7.43;;;5.10;;
75912;SDS011;64592;52.168;21.040;2023-08-31T00:51:04;11.65;;;5.30;;
75912;SDS011;64592;52.168;21.040;2023-08-31T00:56:09;8.18;;;4.50;;
75912;SDS011;64592;52.168;21.040;2023-08-31T01:01:11;7.97;;;4.95;;
75912;SDS011;64592;52.168;21.040;2023-08-31T01:06:25;7.70;;;4.63;;
75912;SDS011;64592;52.168;21.040;2023-08-31T01:11:44;6.25;;;4.28;;
75912;SDS011;64592;52.168;21.040;2023-08-31T01:16:50;6.55;;;4.30;;
75912;SDS011;64592;52.168;21.040;2023-08-31T01:21:54;6.80;;;4.45;;
75912;SDS011;64592;52.168;21.040;2023-08-31T01:27:02;5.90;;;3.72;;
75912;SDS011;64592;52.168;21.040;2023-08-31T01:32:05;7.65;;;4.43;;
75912;SDS011;64592;52.168;21.040;2023-08-31T01:37:10;8.30;;;4.32;;
75912;SDS011;64592;52.168;21.040;2023-08-31T01:42:17;6.88;;;4.55;;
75912;SDS011;64592;52.168;21.040;2023-08-31T01:47:19;6.07;;;4.43;;
75912;SDS011;64592;52.168;21.040;2023-08-31T01:52:21;5.78;;;4.38;;
75912;SDS011;64592;52.168;21.040;2023-08-31T01:57:24;7.07;;;4.65;;
75912;SDS011;64592;52.168;21.040;2023-08-31T02:02:25;6.65;;;4.82;;
75912;SDS011;64592;52.168;21.040;2023-08-31T02:07:27;8.07;;;5.30;;
75912;SDS011;64592;52.168;21.040;2023-08-31T02:12:30;7.22;;;5.05;;
75912;SDS011;64592;52.168;21.040;2023-08-31T02:17:32;6.55;;;4.78;;
75912;SDS011;64592;52.168;21.040;2023-08-31T02:22:35;7.70;;;5.40;;
75912;SDS011;64592;52.168;21.040;2023-08-31T02:27:38;7.57;;;4.95;;
75912;SDS011;64592;52.168;21.040;2023-08-31T02:32:40;7.93;;;4.72;;
75912;SDS011;64592;52.168;21.040;2023-08-31T02:37:41;8.43;;;5.15;;
75912;SDS011;64592;52.168;21.040;2023-08-31T02:42:44;11.15;;;4.97;;
75912;SDS011;64592;52.168;21.040;2023-08-31T02:47:47;6.95;;;5.05;;
75912;SDS011;64592;52.168;21.040;2023-08-31T02:52:49;8.07;;;4.82;;
75912;SDS011;64592;52.168;21.040;2023-08-31T02:57:52;8.32;;;5.18;;
75912;SDS011;64592;52.168;21.040;2023-08-31T03:02:55;7.80;;;4.85;;
75912;SDS011;64592;52.168;21.040;2023-08-31T03:07:56;6.93;;;4.68;;
75912;SDS011;64592;52.168;21.040;2023-08-31T03:12:59;7.07;;;4.90;;
75912;SDS011;64592;52.168;21.040;2023-08-31T03:18:01;6.35;;;4.35;;
75912;SDS011;64592;52.168;21.040;2023-08-31T03:23:03;8.27;;;4.70;;
75912;SDS011;64592;52.168;21.040;2023-08-31T03:28:06;7.30;;;4.50;;
75912;SDS011;64592;52.168;21.040;2023-08-31T03:33:08;12.25;;;4.88;;
75912;SDS011;64592;52.168;21.040;2023-08-31T03:38:10;9.05;;;5.68;;
75912;SDS011;64592;52.168;21.040;2023-08-31T03:43:13;7.18;;;5.03;;
75912;SDS011;64592;52.168;21.040;2023-08-31T03:48:14;11.40;;;4.90;;
75912;SDS011;64592;52.168;21.040;2023-08-31T03:53:16;6.07;;;4.15;;
75912;SDS011;64592;52.168;21.040;2023-08-31T03:58:19;5.75;;;4.50;;
75912;SDS011;64592;52.168;21.040;2023-08-31T04:03:21;6.43;;;4.45;;
75912;SDS011;64592;52.168;21.040;2023-08-31T04:08:24;5.35;;;4.13;;
75912;SDS011;64592;52.168;21.040;2023-08-31T04:13:27;5.68;;;4.05;;
75912;SDS011;64592;52.168;21.040;2023-08-31T04:18:28;7.30;;;4.32;;
75912;SDS011;64592;52.168;21.040;2023-08-31T04:23:30;5.30;;;4.10;;
75912;SDS011;64592;52.168;21.040;2023-08-31T04:28:34;7.72;;;4.82;;
75912;SDS011;64592;52.168;21.040;2023-08-31T04:33:36;8.32;;;4.45;;
75912;SDS011;64592;52.168;21.040;2023-08-31T04:38:39;7.38;;;3.97;;
75912;SDS011;64592;52.168;21.040;2023-08-31T04:43:42;6.70;;;4.68;;
75912;SDS011;64592;52.168;21.040;2023-08-31T04:48:44;6.38;;;4.18;;
75912;SDS011;64592;52.168;21.040;2023-08-31T04:53:46;5.63;;;4.05;;
75912;SDS011;64592;52.168;21.040;2023-08-31T04:58:49;5.60;;;3.80;;
75912;SDS011;64592;52.168;21.040;2023-08-31T05:03:51;5.78;;;3.78;;
75912;SDS011;64592;52.168;21.040;2023-08-31T05:08:53;6.60;;;4.15;;
75912;SDS011;64592;52.168;21.040;2023-08-31T05:13:56;7.65;;;4.18;;
75912;SDS011;64592;52.168;21.040;2023-08-31T05:18:57;8.85;;;4.53;;
75912;SDS011;64592;52.168;21.040;2023-08-31T05:23:59;6.47;;;4.72;;
75912;SDS011;64592;52.168;21.040;2023-08-31T05:29:02;6.93;;;4.05;;
75912;SDS011;64592;52.168;21.040;2023-08-31T05:34:05;6.50;;;4.65;;
75912;SDS011;64592;52.168;21.040;2023-08-31T05:39:06;4.78;;;3.53;;
75912;SDS011;64592;52.168;21.040;2023-08-31T05:44:10;5.47;;;3.70;;
75912;SDS011;64592;52.168;21.040;2023-08-31T05:49:12;6.97;;;4.13;;
75912;SDS011;64592;52.168;21.040;2023-08-31T05:54:14;6.55;;;3.92;;
75912;SDS011;64592;52.168;21.040;2023-08-31T05:59:17;6.45;;;4.05;;
75912;SDS011;64592;52.168;21.040;2023-08-31T06:04:19;6.35;;;4.38;;
75912;SDS011;64592;52.168;21.040;2023-08-31T06:09:20;5.72;;;3.80;;
75912;SDS011;64592;52.168;21.040;2023-08-31T06:14:23;7.40;;;3.35;;
75912;SDS011;64592;52.168;21.040;2023-08-31T06:19:25;6.93;;;3.72;;
75912;SDS011;64592;52.168;21.040;2023-08-31T06:24:26;4.47;;;2.88;;
75912;SDS011;64592;52.168;21.040;2023-08-31T06:29:29;3.75;;;2.55;;
75912;SDS011;64592;52.168;21.040;2023-08-31T06:34:31;5.78;;;2.90;;
75912;SDS011;64592;52.168;21.040;2023-08-31T06:39:33;5.78;;;2.65;;
75912;SDS011;64592;52.168;21.040;2023-08-31T06:44:37;3.63;;;2.53;;
75912;SDS011;64592;52.168;21.040;2023-08-31T06:49:39;3.80;;;2.30;;
75912;SDS011;64592;52.168;21.040;2023-08-31T06:54:40;3.95;;;2.63;;
75912;SDS011;64592;52.168;21.040;2023-08-31T06:59:43;5.80;;;2.55;;
75912;SDS011;64592;52.168;21.040;2023-08-31T07:04:47;4.97;;;3.05;;
75912;SDS011;64592;52.168;21.040;2023-08-31T07:09:49;5.65;;;3.03;;
75912;SDS011;64592;52.168;21.040;2023-08-31T07:14:52;3.78;;;2.63;;
75912;SDS011;64592;52.168;21.040;2023-08-31T07:19:54;5.60;;;3.22;;
75912;SDS011;64592;52.168;21.040;2023-08-31T07:24:56;5.40;;;2.95;;
75912;SDS011;64592;52.168;21.040;2023-08-31T07:29:59;3.55;;;2.20;;
75912;SDS011;64592;52.168;21.040;2023-08-31T07:35:00;3.97;;;2.60;;
75912;SDS011;64592;52.168;21.040;2023-08-31T07:40:05;4.68;;;2.28;;
75912;SDS011;64592;52.168;21.040;2023-08-31T07:45:10;3.67;;;2.30;;
75912;SDS011;64592;52.168;21.040;2023-08-31T07:50:11;3.60;;;2.20;;
75912;SDS011;64592;52.168;21.040;2023-08-31T07:55:14;5.43;;;2.65;;
75912;SDS011;64592;52.168;21.040;2023-08-31T08:00:17;3.55;;;2.10;;
75912;SDS011;64592;52.168;21.040;2023-08-31T08:05:19;5.68;;;2.25;;
75912;SDS011;64592;52.168;21.040;2023-08-31T08:10:21;4.10;;;2.10;;
75912;SDS011;64592;52.168;21.040;2023-08-31T08:15:24;5.35;;;1.77;;
75912;SDS011;64592;52.168;21.040;2023-08-31T08:20:26;3.10;;;1.90;;
75912;SDS011;64592;52.168;21.040;2023-08-31T08:25:28;3.22;;;1.83;;
75912;SDS011;64592;52.168;21.040;2023-08-31T08:30:31;4.88;;;2.67;;
75912;SDS011;64592;52.168;21.040;2023-08-31T08:35:33;3.10;;;2.15;;
75912;SDS011;64592;52.168;21.040;2023-08-31T08:40:35;4.60;;;2.33;;
75912;SDS011;64592;52.168;21.040;2023-08-31T08:45:38;3.03;;;2.15;;
75912;SDS011;64592;52.168;21.040;2023-08-31T08:50:41;4.85;;;2.10;;
75912;SDS011;64592;52.168;21.040;2023-08-31T08:55:43;3.90;;;1.95;;
75912;SDS011;64592;52.168;21.040;2023-08-31T09:00:46;3.92;;;2.00;;
75912;SDS011;64592;52.168;21.040;2023-08-31T09:05:48;2.55;;;1.58;;
75912;SDS011;64592;52.168;21.040;2023-08-31T09:10:51;3.90;;;1.95;;
75912;SDS011;64592;52.168;21.040;2023-08-31T09:15:54;6.13;;;2.40;;
75912;SDS011;64592;52.168;21.040;2023-08-31T09:20:56;2.90;;;1.90;;
75912;SDS011;64592;52.168;21.040;2023-08-31T09:25:58;3.97;;;2.05;;
75912;SDS011;64592;52.168;21.040;2023-08-31T09:31:05;4.40;;;2.20;;
75912;SDS011;64592;52.168;21.040;2023-08-31T09:36:08;3.13;;;1.95;;
75912;SDS011;64592;52.168;21.040;2023-08-31T09:41:11;2.55;;;1.67;;
75912;SDS011;64592;52.168;21.040;2023-08-31T09:46:14;2.88;;;1.88;;
75912;SDS011;64592;52.168;21.040;2023-08-31T09:51:16;3.35;;;1.95;;
75912;SDS011;64592;52.168;21.040;2023-08-31T09:56:22;4.10;;;2.30;;
75912;SDS011;64592;52.168;21.040;2023-08-31T10:01:27;5.35;;;2.45;;
75912;SDS011;64592;52.168;21.040;2023-08-31T10:06:28;3.83;;;2.30;;
75912;SDS011;64592;52.168;21.040;2023-08-31T10:11:32;4.40;;;2.10;;
75912;SDS011;64592;52.168;21.040;2023-08-31T10:16:37;4.13;;;2.40;;
75912;SDS011;64592;52.168;21.040;2023-08-31T10:21:40;4.07;;;2.25;;
75912;SDS011;64592;52.168;21.040;2023-08-31T10:26:44;3.15;;;2.20;;
75912;SDS011;64592;52.168;21.040;2023-08-31T10:31:47;3.53;;;2.50;;
75912;SDS011;64592;52.168;21.040;2023-08-31T10:36:51;4.00;;;2.50;;
75912;SDS011;64592;52.168;21.040;2023-08-31T10:41:52;5.38;;;2.42;;
75912;SDS011;64592;52.168;21.040;2023-08-31T10:46:58;3.83;;;2.15;;
75912;SDS011;64592;52.168;21.040;2023-08-31T10:52:14;3.53;;;2.40;;
75912;SDS011;64592;52.168;21.040;2023-08-31T10:57:17;3.58;;;2.50;;
75912;SDS011;64592;52.168;21.040;2023-08-31T11:02:34;3.40;;;2.28;;
75912;SDS011;64592;52.168;21.040;2023-08-31T11:07:38;4.65;;;2.53;;
75912;SDS011;64592;52.168;21.040;2023-08-31T11:12:41;3.13;;;2.35;;
75912;SDS011;64592;52.168;21.040;2023-08-31T11:17:44;3.80;;;2.83;;
75912;SDS011;64592;52.168;21.040;2023-08-31T11:22:47;3.63;;;2.30;;
75912;SDS011;64592;52.168;21.040;2023-08-31T11:27:53;3.92;;;2.60;;
75912;SDS011;64592;52.168;21.040;2023-08-31T11:33:00;3.90;;;2.40;;
75912;SDS011;64592;52.168;21.040;2023-08-31T11:38:04;3.55;;;2.55;;
75912;SDS011;64592;52.168;21.040;2023-08-31T11:43:06;3.88;;;3.00;;
75912;SDS011;64592;52.168;21.040;2023-08-31T11:48:10;4.30;;;2.78;;
75912;SDS011;64592;52.168;21.040;2023-08-31T11:53:12;3.75;;;3.00;;
75912;SDS011;64592;52.168;21.040;2023-08-31T11:58:14;4.20;;;3.22;;
75912;SDS011;64592;52.168;21.040;2023-08-31T12:03:17;4.63;;;2.80;;
75912;SDS011;64592;52.168;21.040;2023-08-31T12:08:23;5.55;;;3.17;;
75912;SDS011;64592;52.168;21.040;2023-08-31T12:13:26;5.18;;;2.83;;
75912;SDS011;64592;52.168;21.040;2023-08-31T12:18:30;4.00;;;2.92;;
75912;SDS011;64592;52.168;21.040;2023-08-31T12:23:32;4.35;;;2.90;;
75912;SDS011;64592;52.168;21.040;2023-08-31T12:28:34;4.45;;;3.28;;
75912;SDS011;64592;52.168;21.040;2023-08-31T12:33:38;4.72;;;2.90;;
75912;SDS011;64592;52.168;21.040;2023-08-31T12:38:40;5.65;;;3.10;;
75912;SDS011;64592;52.168;21.040;2023-08-31T12:43:41;5.07;;;3.10;;
75912;SDS011;64592;52.168;21.040;2023-08-31T12:48:44;3.60;;;2.90;;
75912;SDS011;64592;52.168;21.040;2023-08-31T12:53:46;3.95;;;3.08;;
75912;SDS011;64592;52.168;21.040;2023-08-31T12:58:48;4.65;;;3.17;;
75912;SDS011;64592;52.168;21.040;2023-08-31T13:03:52;4.00;;;2.80;;
75912;SDS011;64592;52.168;21.040;2023-08-31T13:08:54;3.83;;;2.60;;
75912;SDS011;64592;52.168;21.040;2023-08-31T13:13:55;4.10;;;2.80;;
75912;SDS011;64592;52.168;21.040;2023-08-31T13:18:58;3.97;;;2.95;;
75912;SDS011;64592;52.168;21.040;2023-08-31T13:24:00;3.35;;;2.72;;
75912;SDS011;64592;52.168;21.040;2023-08-31T13:29:02;3.42;;;2.53;;
75912;SDS011;64592;52.168;21.040;2023-08-31T13:34:06;3.03;;;2.60;;
75912;SDS011;64592;52.168;21.040;2023-08-31T13:39:08;3.30;;;2.72;;
75912;SDS011;64592;52.168;21.040;2023-08-31T13:44:09;3.58;;;2.85;;
75912;SDS011;64592;52.168;21.040;2023-08-31T13:49:12;5.28;;;3.08;;
75912;SDS011;64592;52.168;21.040;2023-08-31T13:54:14;2.97;;;2.50;;
75912;SDS011;64592;52.168;21.040;2023-08-31T13:59:16;8.40;;;3.05;;
75912;SDS011;64592;52.168;21.040;2023-08-31T14:04:19;4.68;;;2.75;;
75912;SDS011;64592;52.168;21.040;2023-08-31T14:09:22;4.35;;;2.40;;
75912;SDS011;64592;52.168;21.040;2023-08-31T14:14:23;3.60;;;2.63;;
75912;SDS011;64592;52.168;21.040;2023-08-31T14:19:26;4.63;;;2.75;;
75912;SDS011;64592;52.168;21.040;2023-08-31T14:24:28;5.00;;;3.00;;
75912;SDS011;64592;52.168;21.040;2023-08-31T14:29:30;4.50;;;2.70;;
75912;SDS011;64592;52.168;21.040;2023-08-31T14:34:33;9.98;;;3.00;;
75912;SDS011;64592;52.168;21.040;2023-08-31T14:39:35;3.80;;;2.83;;
75912;SDS011;64592;52.168;21.040;2023-08-31T14:44:37;6.38;;;2.95;;
75912;SDS011;64592;52.168;21.040;2023-08-31T14:49:40;4.80;;;3.60;;
75912;SDS011;64592;52.168;21.040;2023-08-31T14:54:42;4.80;;;3.53;;
75912;SDS011;64592;52.168;21.040;2023-08-31T14:59:45;5.57;;;4.25;;
75912;SDS011;64592;52.168;21.040;2023-08-31T15:04:48;6.55;;;4.30;;
75912;SDS011;64592;52.168;21.040;2023-08-31T15:09:51;7.13;;;4.63;;
75912;SDS011;64592;52.168;21.040;2023-08-31T15:14:53;6.15;;;4.70;;
75912;SDS011;64592;52.168;21.040;2023-08-31T15:19:57;6.53;;;4.65;;
75912;SDS011;64592;52.168;21.040;2023-08-31T15:24:58;5.57;;;5.00;;
75912;SDS011;64592;52.168;21.040;2023-08-31T15:30:00;10.27;;;5.40;;
75912;SDS011;64592;52.168;21.040;2023-08-31T15:35:05;7.78;;;6.10;;
75912;SDS011;64592;52.168;21.040;2023-08-31T15:40:07;8.48;;;6.50;;
75912;SDS011;64592;52.168;21.040;2023-08-31T15:45:09;10.95;;;6.60;;
75912;SDS011;64592;52.168;21.040;2023-08-31T15:50:12;7.70;;;6.57;;
75912;SDS011;64592;52.168;21.040;2023-08-31T15:55:14;8.88;;;6.78;;
75912;SDS011;64592;52.168;21.040;2023-08-31T16:00:17;8.93;;;7.32;;
75912;SDS011;64592;52.168;21.040;2023-08-31T16:05:23;8.35;;;6.80;;
75912;SDS011;64592;52.168;21.040;2023-08-31T16:10:25;7.50;;;6.28;;
75912;SDS011;64592;52.168;21.040;2023-08-31T16:15:27;8.05;;;6.40;;
75912;SDS011;64592;52.168;21.040;2023-08-31T16:20:31;6.65;;;5.57;;
75912;SDS011;64592;52.168;21.040;2023-08-31T16:25:32;7.88;;;6.55;;
75912;SDS011;64592;52.168;21.040;2023-08-31T16:30:34;8.07;;;6.22;;
75912;SDS011;64592;52.168;21.040;2023-08-31T16:35:37;7.55;;;6.18;;
75912;SDS011;64592;52.168;21.040;2023-08-31T16:40:39;8.00;;;6.22;;
75912;SDS011;64592;52.168;21.040;2023-08-31T16:45:41;7.40;;;5.60;;
75912;SDS011;64592;52.168;21.040;2023-08-31T16:50:44;7.95;;;6.18;;
75912;SDS011;64592;52.168;21.040;2023-08-31T16:55:46;9.73;;;5.82;;
75912;SDS011;64592;52.168;21.040;2023-08-31T17:00:48;7.05;;;5.07;;
75912;SDS011;64592;52.168;21.040;2023-08-31T17:05:52;8.18;;;4.53;;
75912;SDS011;64592;52.168;21.040;2023-08-31T17:10:53;5.32;;;4.28;;
75912;SDS011;64592;52.168;21.040;2023-08-31T17:15:55;4.85;;;3.67;;
75912;SDS011;64592;52.168;21.040;2023-08-31T17:20:59;3.97;;;3.50;;
75912;SDS011;64592;52.168;21.040;2023-08-31T17:26:01;4.53;;;3.20;;
75912;SDS011;64592;52.168;21.040;2023-08-31T17:31:04;5.20;;;3.30;;
75912;SDS011;64592;52.168;21.040;2023-08-31T17:36:07;4.25;;;2.92;;
75912;SDS011;64592;52.168;21.040;2023-08-31T17:41:09;4.70;;;3.15;;
75912;SDS011;64592;52.168;21.040;2023-08-31T17:46:11;4.43;;;3.08;;
75912;SDS011;64592;52.168;21.040;2023-08-31T17:51:15;5.20;;;3.42;;
75912;SDS011;64592;52.168;21.040;2023-08-31T17:56:16;4.45;;;3.55;;
75912;SDS011;64592;52.168;21.040;2023-08-31T18:01:18;5.63;;;3.03;;
75912;SDS011;64592;52.168;21.040;2023-08-31T18:06:22;4.55;;;3.10;;
75912;SDS011;64592;52.168;21.040;2023-08-31T18:11:24;4.45;;;3.38;;
75912;SDS011;64592;52.168;21.040;2023-08-31T18:16:26;3.63;;;2.90;;
75912;SDS011;64592;52.168;21.040;2023-08-31T18:21:29;6.15;;;3.63;;
75912;SDS011;64592;52.168;21.040;2023-08-31T18:26:31;4.85;;;3.70;;
75912;SDS011;64592;52.168;21.040;2023-08-31T18:31:33;5.30;;;3.95;;
75912;SDS011;64592;52.168;21.040;2023-08-31T18:36:36;5.65;;;3.70;;
75912;SDS011;64592;52.168;21.040;2023-08-31T18:41:39;5.45;;;3.55;;
75912;SDS011;64592;52.168;21.040;2023-08-31T18:46:41;4.57;;;3.33;;
75912;SDS011;64592;52.168;21.040;2023-08-31T18:51:44;5.45;;;3.70;;
75912;SDS011;64592;52.168;21.040;2023-08-31T18:56:47;5.03;;;3.85;;
75912;SDS011;64592;52.168;21.040;2023-08-31T19:01:49;5.05;;;3.75;;
75912;SDS011;64592;52.168;21.040;2023-08-31T19:06:52;6.35;;;3.17;;
75912;SDS011;64592;52.168;21.040;2023-08-31T19:11:54;4.88;;;3.47;;
75912;SDS011;64592;52.168;21.040;2023-08-31T19:16:56;5.70;;;3.25;;
75912;SDS011;64592;52.168;21.040;2023-08-31T19:21:59;4.47;;;3.17;;
75912;SDS011;64592;52.168;21.040;2023-08-31T19:27:01;5.22;;;3.80;;
75912;SDS011;64592;52.168;21.040;2023-08-31T19:32:03;4.03;;;3.13;;
75912;SDS011;64592;52.168;21.040;2023-08-31T19:37:06;4.30;;;3.10;;
75912;SDS011;64592;52.168;21.040;2023-08-31T19:42:08;5.78;;;3.15;;
75912;SDS011;64592;52.168;21.040;2023-08-31T19:47:10;4.82;;;3.60;;
75912;SDS011;64592;52.168;21.040;2023-08-31T19:52:13;4.22;;;3.35;;
75912;SDS011;64592;52.168;21.040;2023-08-31T19:57:15;5.68;;;3.33;;
75912;SDS011;64592;52.168;21.040;2023-08-31T20:02:17;6.60;;;3.85;;
75912;SDS011;64592;52.168;21.040;2023-08-31T20:07:20;5.40;;;3.63;;
75912;SDS011;64592;52.168;21.040;2023-08-31T20:12:22;8.82;;;4.03;;
75912;SDS011;64592;52.168;21.040;2023-08-31T20:17:24;4.90;;;3.80;;
75912;SDS011;64592;52.168;21.040;2023-08-31T20:22:29;4.85;;;3.95;;
75912;SDS011;64592;52.168;21.040;2023-08-31T20:27:31;3.88;;;3.30;;
75912;SDS011;64592;52.168;21.040;2023-08-31T20:32:33;4.97;;;3.53;;
75912;SDS011;64592;52.168;21.040;2023-08-31T20:37:39;6.18;;;4.10;;
75912;SDS011;64592;52.168;21.040;2023-08-31T20:42:41;4.85;;;3.35;;
75912;SDS011;64592;52.168;21.040;2023-08-31T20:47:45;6.72;;;3.88;;
75912;SDS011;64592;52.168;21.040;2023-08-31T20:52:48;6.00;;;3.70;;
75912;SDS011;64592;52.168;21.040;2023-08-31T20:57:52;6.50;;;3.88;;
75912;SDS011;64592;52.168;21.040;2023-08-31T21:02:55;8.95;;;5.47;;
75912;SDS011;64592;52.168;21.040;2023-08-31T21:07:59;13.93;;;9.70;;
75912;SDS011;64592;52.168;21.040;2023-08-31T21:13:01;11.65;;;8.38;;
75912;SDS011;64592;52.168;21.040;2023-08-31T21:18:03;11.57;;;8.15;;
75912;SDS011;64592;52.168;21.040;2023-08-31T21:23:07;15.15;;;8.75;;
75912;SDS011;64592;52.168;21.040;2023-08-31T21:28:12;9.23;;;5.55;;
75912;SDS011;64592;52.168;21.040;2023-08-31T21:33:14;6.28;;;4.32;;
75912;SDS011;64592;52.168;21.040;2023-08-31T21:38:17;6.68;;;4.68;;
75912;SDS011;64592;52.168;21.040;2023-08-31T21:43:20;6.90;;;4.55;;
75912;SDS011;64592;52.168;21.040;2023-08-31T21:48:22;5.90;;;4.30;;
75912;SDS011;64592;52.168;21.040;2023-08-31T21:53:25;7.85;;;4.70;;
75912;SDS011;64592;52.168;21.040;2023-08-31T21:58:27;5.90;;;3.95;;
75912;SDS011;64592;52.168;21.040;2023-08-31T22:03:29;7.63;;;4.10;;
75912;SDS011;64592;52.168;21.040;2023-08-31T22:08:33;4.95;;;4.13;;
75912;SDS011;64592;52.168;21.040;2023-08-31T22:13:35;6.63;;;4.35;;
75912;SDS011;64592;52.168;21.040;2023-08-31T22:18:37;6.30;;;4.28;;
75912;SDS011;64592;52.168;21.040;2023-08-31T22:23:40;6.28;;;3.42;;
75912;SDS011;64592;52.168;21.040;2023-08-31T22:28:42;7.07;;;4.15;;
75912;SDS011;64592;52.168;21.040;2023-08-31T22:33:44;5.25;;;3.78;;
75912;SDS011;64592;52.168;21.040;2023-08-31T22:38:47;7.53;;;4.00;;
75912;SDS011;64592;52.168;21.040;2023-08-31T22:43:49;5.97;;;3.72;;
75912;SDS011;64592;52.168;21.040;2023-08-31T22:48:51;5.93;;;4.30;;
75912;SDS011;64592;52.168;21.040;2023-08-31T22:53:54;4.88;;;4.20;;
75912;SDS011;64592;52.168;21.040;2023-08-31T22:58:56;8.70;;;4.70;;
75912;SDS011;64592;52.168;21.040;2023-08-31T23:03:58;5.97;;;4.00;;
75912;SDS011;64592;52.168;21.040;2023-08-31T23:09:01;7.50;;;3.75;;
75912;SDS011;64592;52.168;21.040;2023-08-31T23:14:04;7.40;;;4.57;;
75912;SDS011;64592;52.168;21.040;2023-08-31T23:19:06;7.70;;;3.90;;
75912;SDS011;64592;52.168;21.040;2023-08-31T23:24:09;5.55;;;3.72;;
75912;SDS011;64592;52.168;21.040;2023-08-31T23:29:11;6.88;;;4.38;;
75912;SDS011;64592;52.168;21.040;2023-08-31T23:34:13;5.28;;;3.65;;
75912;SDS011;64592;52.168;21.040;2023-08-31T23:39:17;5.25;;;3.72;;
75912;SDS011;64592;52.168;21.040;2023-08-31T23:44:18;6.32;;;4.63;;
75912;SDS011;64592;52.168;21.040;2023-08-31T23:49:20;6.53;;;4.28;;
75912;SDS011;64592;52.168;21.040;2023-08-31T23:54:25;10.10;;;4.35;;
75912;SDS011;64592;52.168;21.040;2023-08-31T23:59:26;7.82;;;4.53;;
